Time;durP1;ratioP1;P1;durP2;ratioP2;P2;SDS_P1;SDS_P2;PMS_P1;PMS_P2;Temp;Humidity;BMP_temperature;BMP_pressure;BME280_temperature;BME280_humidity;BME280_pressure;Samples;Min_cycle;Max_cycle;Signal;HPM_P1;HPM_P2
2020/12/21 00:00:36;;;;;;;18.50;9.33;;;;;;;;;;2060127;28;20244;-57
2020/12/21 00:01:40;;;;;;;19.60;9.87;;;;;;;;;;2063370;28;20219;-57
2020/12/21 00:02:40;;;;;;;19.40;9.87;;;;;;;;;;2078857;28;20226;-56
2020/12/21 00:03:40;;;;;;;19.03;8.53;;;;;;;;;;2073358;28;20848;-55
2020/12/21 00:04:41;;;;;;;14.70;8.53;;;;;;;;;;2067761;28;20201;-56
2020/12/21 00:05:41;;;;;;;14.53;7.83;;;;;;;;;;2071055;28;20188;-55
2020/12/21 00:06:42;;;;;;;19.50;8.80;;;;;;;;;;2072930;28;20177;-56
2020/12/21 00:07:42;;;;;;;11.90;8.07;;;;;;;;;;2075164;28;20192;-57
2020/12/21 00:08:42;;;;;;;15.30;8.40;;;;;;;;;;2070728;28;20193;-53
2020/12/21 00:09:42;;;;;;;17.00;8.67;;;;;;;;;;2073265;28;20820;-55
2020/12/21 00:10:43;;;;;;;16.80;8.53;;;;;;;;;;2073621;28;20735;-56
2020/12/21 00:11:43;;;;;;;14.50;8.73;;;;;;;;;;2068686;28;20275;-57
2020/12/21 00:12:44;;;;;;;12.23;8.03;;;;;;;;;;2066774;28;20247;-53
2020/12/21 00:13:44;;;;;;;18.50;8.27;;;;;;;;;;2071582;28;20188;-56
2020/12/21 00:14:44;;;;;;;14.10;8.60;;;;;;;;;;2078744;28;20291;-56
2020/12/21 00:15:45;;;;;;;10.80;7.73;;;;;;;;;;2076718;28;20512;-54
2020/12/21 00:16:46;;;;;;;17.93;8.37;;;;;;;;;;2075788;28;20897;-57
2020/12/21 00:17:46;;;;;;;18.83;8.07;;;;;;;;;;2068732;28;20182;-58
2020/12/21 00:18:46;;;;;;;12.00;7.87;;;;;;;;;;2075089;28;20181;-56
2020/12/21 00:19:46;;;;;;;14.90;7.90;;;;;;;;;;2065058;28;20178;-57
2020/12/21 00:20:47;;;;;;;17.53;7.97;;;;;;;;;;2065346;28;20181;-57
2020/12/21 00:21:48;;;;;;;11.60;8.17;;;;;;;;;;2073049;28;20192;-57
2020/12/21 00:22:48;;;;;;;13.17;8.23;;;;;;;;;;2071763;28;20186;-56
2020/12/21 00:23:48;;;;;;;15.33;7.67;;;;;;;;;;2073798;28;20765;-57
2020/12/21 00:24:49;;;;;;;13.20;7.70;;;;;;;;;;2065575;28;20174;-55
2020/12/21 00:25:49;;;;;;;16.47;8.00;;;;;;;;;;2066359;28;20185;-56
2020/12/21 00:26:51;;;;;;;12.23;7.57;;;;;;;;;;2075191;28;20250;-57
2020/12/21 00:27:51;;;;;;;14.77;7.40;;;;;;;;;;2073086;28;20222;-58
2020/12/21 00:28:51;;;;;;;17.50;8.03;;;;;;;;;;2066347;28;20178;-57
2020/12/21 00:29:51;;;;;;;16.53;6.93;;;;;;;;;;2070440;28;20195;-54
2020/12/21 00:30:51;;;;;;;18.03;7.23;;;;;;;;;;2074658;28;20222;-57
2020/12/21 00:31:52;;;;;;;13.50;7.63;;;;;;;;;;2073945;28;20216;-55
2020/12/21 00:32:52;;;;;;;12.10;7.10;;;;;;;;;;2073911;28;20168;-56
2020/12/21 00:33:53;;;;;;;8.80;7.03;;;;;;;;;;2074438;28;20200;-56
2020/12/21 00:34:53;;;;;;;17.90;7.83;;;;;;;;;;2074261;28;20295;-57
2020/12/21 00:35:53;;;;;;;9.93;6.53;;;;;;;;;;2074188;28;20173;-57
2020/12/21 00:36:54;;;;;;;15.43;6.83;;;;;;;;;;2074046;28;20181;-58
2020/12/21 00:37:54;;;;;;;13.10;7.43;;;;;;;;;;2073427;28;20177;-57
2020/12/21 00:38:55;;;;;;;17.40;7.90;;;;;;;;;;2070154;28;20209;-58
2020/12/21 00:39:56;;;;;;;11.17;7.00;;;;;;;;;;2070039;28;20229;-57
2020/12/21 00:40:56;;;;;;;14.20;7.40;;;;;;;;;;2077988;28;20181;-58
2020/12/21 00:41:56;;;;;;;11.07;7.32;;;;;;;;;;2071592;28;20548;-56
2020/12/21 00:42:57;;;;;;;10.47;6.60;;;;;;;;;;2072351;28;20211;-57
2020/12/21 00:43:57;;;;;;;15.13;7.47;;;;;;;;;;2078804;23;20209;-57
2020/12/21 00:44:57;;;;;;;11.25;7.47;;;;;;;;;;2071197;28;20193;-58
2020/12/21 00:45:57;;;;;;;13.68;7.10;;;;;;;;;;2074117;28;20624;-57
2020/12/21 00:46:58;;;;;;;11.17;7.73;;;;;;;;;;2073480;28;20260;-57
2020/12/21 00:47:59;;;;;;;17.50;6.57;;;;;;;;;;2072972;28;20196;-57
2020/12/21 00:49:01;;;;;;;10.20;6.35;;;;;;;;;;2082483;28;20192;-54
2020/12/21 00:50:01;;;;;;;10.60;6.90;;;;;;;;;;2082370;28;20274;-55
2020/12/21 00:51:02;;;;;;;16.60;7.30;;;;;;;;;;2066275;28;20208;-54
2020/12/21 00:52:02;;;;;;;10.80;6.53;;;;;;;;;;2065719;28;20208;-57
2020/12/21 00:53:03;;;;;;;11.07;6.93;;;;;;;;;;2065565;28;20200;-52
2020/12/21 00:54:04;;;;;;;13.70;6.80;;;;;;;;;;2073052;28;20208;-56
2020/12/21 00:55:04;;;;;;;15.97;6.57;;;;;;;;;;2078504;28;20184;-53
2020/12/21 00:56:05;;;;;;;10.47;6.70;;;;;;;;;;2082451;28;20271;-55
2020/12/21 00:57:05;;;;;;;9.07;5.97;;;;;;;;;;2078749;28;20173;-54
2020/12/21 00:58:05;;;;;;;10.60;6.67;;;;;;;;;;2074577;28;20164;-53
2020/12/21 00:59:06;;;;;;;10.97;6.37;;;;;;;;;;2082450;28;20534;-51
2020/12/21 01:00:07;;;;;;;12.87;5.83;;;;;;;;;;2082396;28;20653;-57
2020/12/21 01:01:15;;;;;;;15.43;7.17;;;;;;;;;;2082285;28;20543;-53
2020/12/21 01:02:15;;;;;;;13.45;6.07;;;;;;;;;;2077197;28;20652;-56
2020/12/21 01:03:15;;;;;;;11.10;5.87;;;;;;;;;;2078844;28;20168;-53
2020/12/21 01:04:16;;;;;;;17.23;6.75;;;;;;;;;;2082418;28;20460;-55
2020/12/21 01:05:16;;;;;;;12.30;5.93;;;;;;;;;;2081834;28;20541;-53
2020/12/21 01:06:16;;;;;;;12.77;6.72;;;;;;;;;;2073115;28;20192;-54
2020/12/21 01:07:16;;;;;;;9.67;5.70;;;;;;;;;;2072466;28;20161;-52
2020/12/21 01:08:17;;;;;;;13.03;6.70;;;;;;;;;;2073291;28;20208;-57
2020/12/21 01:09:17;;;;;;;15.70;6.28;;;;;;;;;;2068380;28;20178;-54
2020/12/21 01:10:17;;;;;;;7.50;5.60;;;;;;;;;;2075645;28;20260;-57
2020/12/21 01:11:17;;;;;;;11.88;6.50;;;;;;;;;;2081890;28;20261;-54
2020/12/21 01:12:18;;;;;;;15.80;6.00;;;;;;;;;;2081589;28;20273;-57
2020/12/21 01:13:18;;;;;;;11.80;6.23;;;;;;;;;;2082301;28;20183;-51
2020/12/21 01:14:18;;;;;;;15.40;6.03;;;;;;;;;;2082521;28;20187;-54
2020/12/21 01:15:18;;;;;;;12.97;6.27;;;;;;;;;;2082174;28;20230;-57
2020/12/21 01:16:19;;;;;;;11.45;6.10;;;;;;;;;;2081883;28;20194;-53
2020/12/21 01:17:20;;;;;;;7.55;5.70;;;;;;;;;;2081376;28;20161;-55
2020/12/21 01:18:20;;;;;;;10.68;6.10;;;;;;;;;;2082108;28;20579;-54
2020/12/21 01:19:20;;;;;;;9.85;5.45;;;;;;;;;;2076303;28;20696;-55
2020/12/21 01:20:20;;;;;;;12.63;7.13;;;;;;;;;;2080952;28;20195;-53
2020/12/21 01:21:22;;;;;;;6.95;5.57;;;;;;;;;;2076752;28;20195;-55
2020/12/21 01:22:22;;;;;;;10.63;6.57;;;;;;;;;;2074871;28;20181;-54
2020/12/21 01:23:22;;;;;;;9.97;5.83;;;;;;;;;;2079658;28;20633;-54
2020/12/21 01:24:22;;;;;;;10.97;6.30;;;;;;;;;;2081891;28;20181;-54
2020/12/21 01:25:23;;;;;;;11.55;5.78;;;;;;;;;;2081471;28;20173;-56
2020/12/21 01:26:24;;;;;;;13.57;5.70;;;;;;;;;;2082232;28;20171;-56
2020/12/21 01:27:24;;;;;;;11.50;6.10;;;;;;;;;;2081338;28;20168;-53
2020/12/21 01:28:24;;;;;;;12.33;5.80;;;;;;;;;;2082211;28;20180;-57
2020/12/21 01:29:24;;;;;;;14.25;6.60;;;;;;;;;;2082396;28;20192;-55
2020/12/21 01:30:25;;;;;;;13.20;6.07;;;;;;;;;;2081842;28;20254;-55
2020/12/21 01:31:25;;;;;;;9.53;6.07;;;;;;;;;;2081209;28;20652;-55
2020/12/21 01:32:25;;;;;;;12.35;6.05;;;;;;;;;;2081150;28;20168;-52
2020/12/21 01:33:25;;;;;;;9.32;5.43;;;;;;;;;;2081089;28;20195;-52
2020/12/21 01:34:25;;;;;;;11.57;6.18;;;;;;;;;;2075821;28;20185;-55
2020/12/21 01:35:26;;;;;;;11.65;5.80;;;;;;;;;;2079945;28;20180;-52
2020/12/21 01:36:26;;;;;;;9.17;5.97;;;;;;;;;;2081306;28;20226;-53
2020/12/21 01:37:26;;;;;;;10.80;6.00;;;;;;;;;;2080935;28;20219;-55
2020/12/21 01:38:26;;;;;;;11.60;5.97;;;;;;;;;;2082078;28;20184;-52
2020/12/21 01:39:26;;;;;;;10.10;5.73;;;;;;;;;;2081808;28;20168;-54
2020/12/21 01:40:27;;;;;;;9.25;6.35;;;;;;;;;;2081159;28;20172;-54
2020/12/21 01:41:27;;;;;;;12.20;5.97;;;;;;;;;;2081729;28;20234;-55
2020/12/21 01:42:29;;;;;;;11.82;6.13;;;;;;;;;;2082098;28;20231;-55
2020/12/21 01:43:29;;;;;;;10.63;6.03;;;;;;;;;;2075260;28;20684;-56
2020/12/21 01:44:29;;;;;;;12.27;6.25;;;;;;;;;;2064911;28;20205;-55
2020/12/21 01:45:30;;;;;;;13.98;5.45;;;;;;;;;;2070918;28;20622;-59
2020/12/21 01:46:30;;;;;;;13.23;5.80;;;;;;;;;;2074558;28;20169;-54
2020/12/21 01:47:30;;;;;;;11.43;6.22;;;;;;;;;;2064286;28;20650;-52
2020/12/21 01:48:31;;;;;;;13.05;5.22;;;;;;;;;;2069595;28;20180;-53
2020/12/21 01:49:31;;;;;;;10.30;5.60;;;;;;;;;;2081126;28;20263;-52
2020/12/21 01:50:31;;;;;;;13.20;5.57;;;;;;;;;;2071819;28;20191;-53
2020/12/21 01:51:32;;;;;;;10.83;5.73;;;;;;;;;;2066283;28;20213;-57
2020/12/21 01:52:33;;;;;;;12.47;6.00;;;;;;;;;;2071456;28;20272;-52
2020/12/21 01:53:34;;;;;;;11.30;5.15;;;;;;;;;;2073218;28;20183;-51
2020/12/21 01:54:35;;;;;;;11.00;5.97;;;;;;;;;;2081902;28;20204;-51
2020/12/21 01:55:40;;;;;;;11.32;5.45;;;;;;;;;;2081477;28;20637;-52
2020/12/21 01:56:41;;;;;;;10.50;5.37;;;;;;;;;;2081382;28;20562;-55
2020/12/21 01:57:41;;;;;;;18.30;6.13;;;;;;;;;;2081147;28;20172;-56
2020/12/21 01:58:42;;;;;;;11.93;5.10;;;;;;;;;;2081745;28;20250;-56
2020/12/21 01:59:42;;;;;;;11.27;5.70;;;;;;;;;;2081859;28;20523;-57
2020/12/21 02:00:43;;;;;;;13.80;6.43;;;;;;;;;;2081624;28;20326;-52
2020/12/21 02:01:45;;;;;;;8.20;5.57;;;;;;;;;;2073075;28;20172;-53
2020/12/21 02:02:45;;;;;;;13.93;5.67;;;;;;;;;;2072920;28;20231;-54
2020/12/21 02:03:46;;;;;;;9.90;5.07;;;;;;;;;;2080122;28;20270;-53
2020/12/21 02:04:46;;;;;;;13.23;5.33;;;;;;;;;;2080941;28;20188;-56
2020/12/21 02:05:46;;;;;;;12.23;6.37;;;;;;;;;;2074337;28;20731;-55
2020/12/21 02:06:47;;;;;;;8.23;5.27;;;;;;;;;;2081014;28;20169;-55
2020/12/21 02:07:48;;;;;;;13.50;5.93;;;;;;;;;;2080573;28;20173;-56
2020/12/21 02:08:48;;;;;;;15.57;5.90;;;;;;;;;;2072352;28;20200;-55
2020/12/21 02:09:49;;;;;;;10.03;5.70;;;;;;;;;;2071661;28;20176;-53
2020/12/21 02:10:49;;;;;;;8.90;5.20;;;;;;;;;;2074350;28;20169;-58
2020/12/21 02:11:49;;;;;;;9.60;5.80;;;;;;;;;;2080670;28;20211;-54
2020/12/21 02:12:49;;;;;;;12.00;6.03;;;;;;;;;;2074810;28;20557;-53
2020/12/21 02:13:49;;;;;;;11.97;6.23;;;;;;;;;;2080329;28;20293;-56
2020/12/21 02:14:50;;;;;;;9.37;5.13;;;;;;;;;;2075423;28;20197;-53
2020/12/21 02:15:50;;;;;;;11.13;6.57;;;;;;;;;;2080027;28;20601;-57
2020/12/21 02:16:50;;;;;;;12.63;5.57;;;;;;;;;;2065893;28;20181;-54
2020/12/21 02:17:53;;;;;;;13.20;6.37;;;;;;;;;;2071403;28;20160;-51
2020/12/21 02:18:53;;;;;;;15.80;6.20;;;;;;;;;;2067861;28;20326;-52
2020/12/21 02:19:53;;;;;;;12.83;6.00;;;;;;;;;;2070645;28;20252;-54
2020/12/21 02:20:53;;;;;;;12.10;5.83;;;;;;;;;;2075903;28;20637;-54
2020/12/21 02:21:53;;;;;;;13.20;6.80;;;;;;;;;;2072709;28;20664;-55
2020/12/21 02:22:54;;;;;;;10.10;5.63;;;;;;;;;;2078047;28;20609;-57
2020/12/21 02:23:54;;;;;;;7.38;6.10;;;;;;;;;;2080624;28;20184;-54
2020/12/21 02:24:54;;;;;;;10.87;5.73;;;;;;;;;;2077562;28;20204;-55
2020/12/21 02:25:55;;;;;;;10.33;6.13;;;;;;;;;;2079539;28;20188;-52
2020/12/21 02:26:55;;;;;;;13.80;5.93;;;;;;;;;;2079146;28;20180;-53
2020/12/21 02:27:55;;;;;;;13.57;5.90;;;;;;;;;;2078674;28;20204;-54
2020/12/21 02:28:56;;;;;;;11.00;5.73;;;;;;;;;;2077875;28;20254;-53
2020/12/21 02:29:56;;;;;;;11.73;6.37;;;;;;;;;;2073289;28;20716;-52
2020/12/21 02:30:57;;;;;;;10.57;5.67;;;;;;;;;;2071193;28;20189;-55
2020/12/21 02:31:59;;;;;;;12.40;5.77;;;;;;;;;;2072752;28;20212;-56
2020/12/21 02:32:59;;;;;;;11.83;6.03;;;;;;;;;;2073355;28;20554;-53
2020/12/21 02:33:59;;;;;;;10.53;6.40;;;;;;;;;;2079270;28;20187;-53
2020/12/21 02:35:00;;;;;;;13.63;6.37;;;;;;;;;;2082989;28;20191;-56
2020/12/21 02:36:00;;;;;;;13.83;6.47;;;;;;;;;;2081460;28;20175;-53
2020/12/21 02:37:00;;;;;;;13.97;5.67;;;;;;;;;;2072074;28;20181;-55
2020/12/21 02:38:06;;;;;;;12.67;6.23;;;;;;;;;;2068803;28;20181;-58
2020/12/21 02:39:07;;;;;;;15.40;6.60;;;;;;;;;;2083230;28;20615;-58
2020/12/21 02:40:07;;;;;;;10.50;6.30;;;;;;;;;;2081606;28;20172;-56
2020/12/21 02:41:08;;;;;;;12.27;5.80;;;;;;;;;;2078223;28;20256;-52
2020/12/21 02:42:09;;;;;;;15.63;6.20;;;;;;;;;;2076545;28;20184;-54
2020/12/21 02:43:09;;;;;;;13.27;6.83;;;;;;;;;;2080728;28;20263;-59
2020/12/21 02:44:09;;;;;;;18.10;7.57;;;;;;;;;;2068263;28;20185;-58
2020/12/21 02:45:10;;;;;;;15.17;6.87;;;;;;;;;;2065416;28;20232;-59
2020/12/21 02:46:11;;;;;;;10.73;6.40;;;;;;;;;;2081784;28;20201;-55
2020/12/21 02:47:11;;;;;;;14.70;7.00;;;;;;;;;;2080328;28;20247;-55
2020/12/21 02:48:11;;;;;;;11.47;7.33;;;;;;;;;;2080685;28;20728;-56
2020/12/21 02:49:11;;;;;;;13.07;7.47;;;;;;;;;;2078583;28;20699;-57
2020/12/21 02:50:12;;;;;;;14.27;6.87;;;;;;;;;;2077862;28;20219;-52
2020/12/21 02:51:16;;;;;;;12.13;6.43;;;;;;;;;;2078923;28;20172;-53
2020/12/21 02:52:16;;;;;;;11.77;7.50;;;;;;;;;;2083046;28;20240;-54
2020/12/21 02:53:16;;;;;;;12.90;7.00;;;;;;;;;;2079137;28;20630;-54
2020/12/21 02:54:17;;;;;;;14.90;7.63;;;;;;;;;;2080984;28;20226;-55
2020/12/21 02:55:17;;;;;;;15.03;7.00;;;;;;;;;;2079887;28;20185;-58
2020/12/21 02:56:17;;;;;;;13.00;6.80;;;;;;;;;;2083470;28;20176;-58
2020/12/21 02:57:17;;;;;;;14.03;6.20;;;;;;;;;;2079508;28;20177;-57
2020/12/21 02:58:18;;;;;;;11.73;6.90;;;;;;;;;;2081897;28;20172;-59
2020/12/21 02:59:18;;;;;;;15.67;6.27;;;;;;;;;;2070746;28;20181;-60
2020/12/21 03:00:18;;;;;;;13.03;6.40;;;;;;;;;;2075170;28;20197;-59
2020/12/21 03:01:19;;;;;;;15.30;7.50;;;;;;;;;;2081783;28;20175;-60
2020/12/21 03:02:19;;;;;;;11.13;6.70;;;;;;;;;;2084539;28;20172;-57
2020/12/21 03:03:19;;;;;;;13.70;6.40;;;;;;;;;;2081087;28;20388;-58
2020/12/21 03:04:19;;;;;;;12.07;7.23;;;;;;;;;;2083747;28;20731;-55
2020/12/21 03:05:20;;;;;;;13.40;7.10;;;;;;;;;;2083048;28;20185;-57
2020/12/21 03:06:20;;;;;;;17.20;7.07;;;;;;;;;;2081924;28;20240;-55
2020/12/21 03:07:20;;;;;;;14.70;7.43;;;;;;;;;;2081930;28;20195;-56
2020/12/21 03:08:20;;;;;;;10.83;7.07;;;;;;;;;;2080185;28;20199;-54
2020/12/21 03:09:21;;;;;;;12.93;7.50;;;;;;;;;;2079736;28;20176;-56
2020/12/21 03:10:21;;;;;;;10.70;6.80;;;;;;;;;;2078465;28;20184;-54
2020/12/21 03:11:21;;;;;;;8.63;6.40;;;;;;;;;;2074538;28;20176;-53
2020/12/21 03:12:22;;;;;;;17.60;7.37;;;;;;;;;;2079055;28;20174;-52
2020/12/21 03:13:22;;;;;;;11.87;6.80;;;;;;;;;;2080739;28;20187;-55
2020/12/21 03:14:22;;;;;;;13.83;6.83;;;;;;;;;;2075462;28;20271;-52
2020/12/21 03:15:22;;;;;;;18.23;8.23;;;;;;;;;;2070156;28;20580;-55
2020/12/21 03:16:23;;;;;;;13.80;6.80;;;;;;;;;;2072321;28;20176;-52
2020/12/21 03:17:23;;;;;;;11.47;7.10;;;;;;;;;;2066208;28;20174;-57
2020/12/21 03:18:23;;;;;;;15.70;7.27;;;;;;;;;;2069822;28;20523;-54
2020/12/21 03:19:24;;;;;;;16.17;6.87;;;;;;;;;;2060440;28;20174;-55
2020/12/21 03:20:24;;;;;;;11.80;6.90;;;;;;;;;;2066586;28;20185;-52
2020/12/21 03:21:24;;;;;;;13.57;7.27;;;;;;;;;;2080321;28;20176;-53
2020/12/21 03:22:24;;;;;;;17.27;6.93;;;;;;;;;;2075871;28;20227;-51
2020/12/21 03:23:25;;;;;;;13.70;7.57;;;;;;;;;;2080362;28;20212;-54
2020/12/21 03:24:25;;;;;;;16.13;6.70;;;;;;;;;;2067782;28;20193;-55
2020/12/21 03:25:25;;;;;;;12.33;6.57;;;;;;;;;;2073512;28;20185;-54
2020/12/21 03:26:26;;;;;;;14.03;6.37;;;;;;;;;;2076823;28;20172;-57
2020/12/21 03:27:27;;;;;;;14.90;6.67;;;;;;;;;;2079434;28;20188;-58
2020/12/21 03:28:27;;;;;;;13.53;6.47;;;;;;;;;;2075083;28;20224;-54
2020/12/21 03:29:27;;;;;;;10.80;6.20;;;;;;;;;;2074469;28;20267;-56
2020/12/21 03:30:27;;;;;;;8.73;6.17;;;;;;;;;;2072495;28;20177;-55
2020/12/21 03:31:28;;;;;;;8.60;6.20;;;;;;;;;;2072758;28;20692;-56
2020/12/21 03:32:28;;;;;;;11.43;6.80;;;;;;;;;;2069623;28;20698;-55
2020/12/21 03:33:28;;;;;;;13.47;7.10;;;;;;;;;;2072062;28;20185;-54
2020/12/21 03:34:28;;;;;;;17.03;6.63;;;;;;;;;;2079324;28;20541;-54
2020/12/21 03:35:29;;;;;;;14.23;6.87;;;;;;;;;;2072648;28;20263;-56
2020/12/21 03:36:29;;;;;;;14.73;6.77;;;;;;;;;;2071093;28;20188;-54
2020/12/21 03:37:32;;;;;;;9.43;6.47;;;;;;;;;;2074397;28;20239;-53
2020/12/21 03:38:32;;;;;;;13.70;6.40;;;;;;;;;;2074979;28;20251;-51
2020/12/21 03:39:33;;;;;;;13.37;6.20;;;;;;;;;;2076407;28;20220;-56
2020/12/21 03:40:33;;;;;;;11.33;6.37;;;;;;;;;;2078781;28;20184;-53
2020/12/21 03:41:35;;;;;;;13.83;6.00;;;;;;;;;;2080645;28;20176;-54
2020/12/21 03:42:35;;;;;;;10.10;6.80;;;;;;;;;;2075945;28;20242;-56
2020/12/21 03:43:35;;;;;;;10.77;6.47;;;;;;;;;;2081514;28;20243;-54
2020/12/21 03:44:36;;;;;;;13.40;6.77;;;;;;;;;;2073863;28;20231;-55
2020/12/21 03:45:36;;;;;;;10.53;6.80;;;;;;;;;;2081149;28;20191;-55
2020/12/21 03:46:36;;;;;;;13.97;6.57;;;;;;;;;;2075622;28;20279;-53
2020/12/21 03:47:36;;;;;;;11.50;6.70;;;;;;;;;;2080913;28;20188;-52
2020/12/21 03:48:37;;;;;;;10.93;5.93;;;;;;;;;;2083192;28;20668;-59
2020/12/21 03:49:37;;;;;;;14.63;6.93;;;;;;;;;;2077273;28;20668;-55
2020/12/21 03:50:37;;;;;;;16.60;6.83;;;;;;;;;;2079447;28;20192;-55
2020/12/21 03:51:37;;;;;;;14.07;6.97;;;;;;;;;;2075147;28;20201;-55
2020/12/21 03:52:37;;;;;;;16.53;6.70;;;;;;;;;;2082041;28;20188;-53
2020/12/21 03:53:38;;;;;;;12.30;6.73;;;;;;;;;;2075111;28;20204;-52
2020/12/21 03:54:38;;;;;;;12.50;6.17;;;;;;;;;;2082877;28;20204;-56
2020/12/21 03:55:38;;;;;;;13.07;6.50;;;;;;;;;;2080042;28;20242;-59
2020/12/21 03:56:43;;;;;;;11.73;5.80;;;;;;;;;;2083106;28;20176;-55
2020/12/21 03:57:43;;;;;;;12.63;6.20;;;;;;;;;;2074405;28;20230;-56
2020/12/21 03:58:43;;;;;;;17.57;6.17;;;;;;;;;;2082120;28;20184;-51
2020/12/21 03:59:43;;;;;;;14.73;6.80;;;;;;;;;;2078487;28;20182;-54
2020/12/21 04:00:44;;;;;;;12.43;7.27;;;;;;;;;;2075432;28;20618;-53
2020/12/21 04:01:44;;;;;;;10.17;6.40;;;;;;;;;;2082136;28;20196;-54
2020/12/21 04:02:44;;;;;;;14.13;6.37;;;;;;;;;;2082273;28;20192;-53
2020/12/21 04:03:44;;;;;;;9.60;5.77;;;;;;;;;;2075399;28;20537;-56
2020/12/21 04:04:45;;;;;;;16.47;6.40;;;;;;;;;;2082671;28;20565;-52
2020/12/21 04:05:45;;;;;;;9.10;5.03;;;;;;;;;;2066777;28;20189;-53
2020/12/21 04:06:45;;;;;;;8.10;5.73;;;;;;;;;;2073277;28;20180;-52
2020/12/21 04:07:45;;;;;;;12.67;5.97;;;;;;;;;;2072701;28;20276;-52
2020/12/21 04:08:46;;;;;;;11.47;6.17;;;;;;;;;;2069815;28;20216;-51
2020/12/21 04:09:46;;;;;;;10.63;6.17;;;;;;;;;;2073139;28;20185;-52
2020/12/21 04:10:47;;;;;;;8.97;5.80;;;;;;;;;;2069963;28;20214;-52
2020/12/21 04:11:47;;;;;;;11.93;5.40;;;;;;;;;;2081614;28;20230;-54
2020/12/21 04:12:47;;;;;;;13.23;6.13;;;;;;;;;;2075317;28;20173;-54
2020/12/21 04:13:47;;;;;;;8.10;5.23;;;;;;;;;;2073635;28;20181;-53
2020/12/21 04:14:48;;;;;;;10.37;5.63;;;;;;;;;;2070050;28;20189;-53
2020/12/21 04:15:48;;;;;;;8.97;5.27;;;;;;;;;;2070112;28;20638;-53
2020/12/21 04:16:48;;;;;;;13.13;6.17;;;;;;;;;;2066667;28;20193;-52
2020/12/21 04:17:48;;;;;;;12.67;5.70;;;;;;;;;;2081697;28;20173;-55
2020/12/21 04:18:48;;;;;;;12.67;5.83;;;;;;;;;;2081798;28;20207;-52
2020/12/21 04:19:49;;;;;;;15.13;5.93;;;;;;;;;;2071363;28;20251;-58
2020/12/21 04:20:49;;;;;;;15.00;5.53;;;;;;;;;;2072796;28;20175;-56
2020/12/21 04:21:49;;;;;;;9.07;5.40;;;;;;;;;;2073457;28;20161;-55
2020/12/21 04:22:49;;;;;;;10.03;5.83;;;;;;;;;;2075463;28;20674;-54
2020/12/21 04:23:50;;;;;;;7.60;5.27;;;;;;;;;;2073141;28;20180;-53
2020/12/21 04:24:50;;;;;;;11.70;5.50;;;;;;;;;;2068516;28;20198;-59
2020/12/21 04:25:50;;;;;;;9.23;5.73;;;;;;;;;;2085638;28;20172;-55
2020/12/21 04:26:50;;;;;;;7.73;5.40;;;;;;;;;;2085821;28;20259;-57
2020/12/21 04:27:51;;;;;;;13.40;5.13;;;;;;;;;;2084164;28;20251;-55
2020/12/21 04:28:51;;;;;;;11.97;5.47;;;;;;;;;;2086618;28;20253;-54
2020/12/21 04:29:51;;;;;;;10.83;5.33;;;;;;;;;;2085163;28;20196;-57
2020/12/21 04:30:51;;;;;;;12.60;5.23;;;;;;;;;;2075871;28;20244;-59
2020/12/21 04:31:52;;;;;;;10.77;5.20;;;;;;;;;;2076692;28;20255;-58
2020/12/21 04:32:52;;;;;;;9.93;5.73;;;;;;;;;;2083809;28;20192;-57
2020/12/21 04:33:53;;;;;;;9.43;5.57;;;;;;;;;;2084144;28;20219;-53
2020/12/21 04:34:53;;;;;;;12.33;5.87;;;;;;;;;;2084824;28;20207;-56
2020/12/21 04:35:53;;;;;;;10.30;5.37;;;;;;;;;;2075329;28;20173;-54
2020/12/21 04:36:54;;;;;;;15.77;6.73;;;;;;;;;;2073666;28;20168;-54
2020/12/21 04:37:54;;;;;;;13.93;5.23;;;;;;;;;;2082306;28;20278;-53
2020/12/21 04:38:54;;;;;;;11.33;5.47;;;;;;;;;;2082786;28;20173;-55
2020/12/21 04:39:54;;;;;;;14.87;5.40;;;;;;;;;;2082539;28;20688;-52
2020/12/21 04:40:55;;;;;;;10.47;5.67;;;;;;;;;;2082435;28;20543;-51
2020/12/21 04:41:57;;;;;;;9.00;4.90;;;;;;;;;;2082890;28;20178;-55
2020/12/21 04:42:58;;;;;;;12.50;5.67;;;;;;;;;;2075255;28;20169;-54
2020/12/21 04:43:59;;;;;;;8.93;5.43;;;;;;;;;;2073911;28;20215;-54
2020/12/21 04:44:59;;;;;;;11.37;6.07;;;;;;;;;;2082556;28;20179;-55
2020/12/21 04:46:06;;;;;;;11.07;5.53;;;;;;;;;;2083245;28;20251;-57
2020/12/21 04:47:07;;;;;;;11.73;5.50;;;;;;;;;;2084692;28;20184;-55
2020/12/21 04:48:07;;;;;;;10.63;4.70;;;;;;;;;;2076271;28;20296;-55
2020/12/21 04:49:08;;;;;;;14.53;6.23;;;;;;;;;;2074857;28;20235;-58
2020/12/21 04:50:10;;;;;;;11.20;5.43;;;;;;;;;;2083290;28;20196;-52
2020/12/21 04:51:11;;;;;;;9.57;5.47;;;;;;;;;;2082934;28;20688;-53
2020/12/21 04:52:11;;;;;;;11.20;4.77;;;;;;;;;;2083100;28;20216;-55
2020/12/21 04:53:12;;;;;;;10.90;5.20;;;;;;;;;;2082995;28;20234;-54
2020/12/21 04:54:13;;;;;;;8.50;5.50;;;;;;;;;;2072377;28;20396;-52
2020/12/21 04:55:15;;;;;;;9.87;5.63;;;;;;;;;;2064797;28;20660;-51
2020/12/21 04:56:15;;;;;;;6.57;4.27;;;;;;;;;;2068771;28;20173;-51
2020/12/21 04:57:15;;;;;;;9.50;5.17;;;;;;;;;;2081981;28;20202;-55
2020/12/21 04:58:15;;;;;;;10.73;5.03;;;;;;;;;;2077536;28;20204;-55
2020/12/21 04:59:16;;;;;;;11.73;5.30;;;;;;;;;;2073427;28;20541;-55
2020/12/21 05:00:16;;;;;;;8.80;5.07;;;;;;;;;;2076970;28;20193;-47
2020/12/21 05:01:16;;;;;;;12.50;5.50;;;;;;;;;;2081437;28;20183;-54
2020/12/21 05:02:16;;;;;;;7.10;4.70;;;;;;;;;;2078759;28;20169;-52
2020/12/21 05:03:16;;;;;;;12.73;5.67;;;;;;;;;;2077427;28;20231;-55
2020/12/21 05:04:17;;;;;;;13.87;6.57;;;;;;;;;;2065730;28;20253;-49
2020/12/21 05:05:27;;;;;;;16.00;5.00;;;;;;;;;;2067666;28;20205;-52
2020/12/21 05:06:27;;;;;;;7.60;4.97;;;;;;;;;;2069337;28;20218;-52
2020/12/21 05:07:31;;;;;;;7.43;5.20;;;;;;;;;;2082377;28;20188;-54
2020/12/21 05:08:31;;;;;;;12.90;5.40;;;;;;;;;;2077568;28;20196;-54
2020/12/21 05:09:32;;;;;;;9.83;5.40;;;;;;;;;;2082658;28;20188;-53
2020/12/21 05:10:32;;;;;;;9.10;5.20;;;;;;;;;;2078406;28;20231;-57
2020/12/21 05:11:33;;;;;;;11.27;5.47;;;;;;;;;;2074806;28;20250;-56
2020/12/21 05:12:34;;;;;;;9.47;5.20;;;;;;;;;;2080713;28;20207;-53
2020/12/21 05:13:34;;;;;;;9.30;5.20;;;;;;;;;;2074409;28;20327;-58
2020/12/21 05:14:35;;;;;;;10.37;5.37;;;;;;;;;;2074623;28;20197;-55
2020/12/21 05:15:36;;;;;;;10.00;5.27;;;;;;;;;;2074282;28;20177;-55
2020/12/21 05:16:36;;;;;;;10.10;5.43;;;;;;;;;;2081163;28;20271;-53
2020/12/21 05:17:37;;;;;;;9.27;5.17;;;;;;;;;;2076783;28;20176;-53
2020/12/21 05:18:37;;;;;;;11.10;4.50;;;;;;;;;;2082087;28;20188;-52
2020/12/21 05:19:37;;;;;;;11.10;5.33;;;;;;;;;;2081066;28;20184;-52
2020/12/21 05:20:38;;;;;;;16.60;5.43;;;;;;;;;;2068857;28;20184;-53
2020/12/21 05:21:40;;;;;;;10.00;5.27;;;;;;;;;;2067389;28;20204;-52
2020/12/21 05:22:40;;;;;;;12.87;5.50;;;;;;;;;;2082093;28;20203;-51
2020/12/21 05:23:55;;;;;;;9.23;4.80;;;;;;;;;;2074220;28;20271;-57
2020/12/21 05:25:05;;;;;;;16.47;5.43;;;;;;;;;;2075658;28;20633;-55
2020/12/21 05:26:07;;;;;;;10.87;5.57;;;;;;;;;;2081564;28;20313;-54
2020/12/21 05:27:10;;;;;;;10.33;5.37;;;;;;;;;;2078681;28;20236;-57
2020/12/21 05:28:14;;;;;;;11.37;5.10;;;;;;;;;;2061612;28;20181;-47
2020/12/21 05:29:32;;;;;;;14.23;5.23;;;;;;;;;;2069650;28;20181;-55
2020/12/21 05:30:32;;;;;;;9.37;5.17;;;;;;;;;;2082514;28;20251;-53
2020/12/21 05:31:33;;;;;;;8.90;5.07;;;;;;;;;;2066325;28;20206;-58
2020/12/21 05:32:33;;;;;;;10.17;5.40;;;;;;;;;;2071990;28;20198;-58
2020/12/21 05:33:33;;;;;;;8.27;5.13;;;;;;;;;;2076346;28;20189;-56
2020/12/21 05:34:34;;;;;;;11.27;5.40;;;;;;;;;;2081912;28;20200;-59
2020/12/21 05:35:34;;;;;;;9.77;5.67;;;;;;;;;;2080013;28;20215;-58
2020/12/21 05:36:34;;;;;;;11.37;5.33;;;;;;;;;;2080730;28;20574;-52
2020/12/21 05:37:35;;;;;;;11.93;5.00;;;;;;;;;;2074998;28;20182;-54
2020/12/21 05:38:36;;;;;;;11.90;4.77;;;;;;;;;;2078757;28;20191;-52
2020/12/21 05:39:46;;;;;;;9.03;4.83;;;;;;;;;;2082404;28;20176;-54
2020/12/21 05:40:46;;;;;;;8.03;5.17;;;;;;;;;;2080838;28;20208;-58
2020/12/21 05:41:46;;;;;;;11.70;5.63;;;;;;;;;;2081929;28;20191;-57
2020/12/21 05:42:46;;;;;;;6.53;4.77;;;;;;;;;;2075521;28;20651;-56
2020/12/21 05:43:47;;;;;;;8.67;5.93;;;;;;;;;;2082071;28;20189;-56
2020/12/21 05:44:51;;;;;;;13.67;5.50;;;;;;;;;;2078922;28;20265;-52
2020/12/21 05:46:04;;;;;;;9.50;5.13;;;;;;;;;;2078148;28;20180;-53
2020/12/21 05:47:05;;;;;;;9.67;5.37;;;;;;;;;;2077333;28;20231;-53
2020/12/21 05:48:05;;;;;;;9.80;5.20;;;;;;;;;;2081263;28;20185;-57
2020/12/21 05:49:05;;;;;;;9.63;5.27;;;;;;;;;;2082587;28;20176;-55
2020/12/21 05:50:06;;;;;;;14.00;5.70;;;;;;;;;;2078825;28;20214;-53
2020/12/21 05:51:07;;;;;;;9.10;5.00;;;;;;;;;;2077067;28;20181;-55
2020/12/21 05:52:12;;;;;;;8.70;5.33;;;;;;;;;;2074629;28;20196;-53
2020/12/21 05:53:12;;;;;;;9.73;4.90;;;;;;;;;;2073459;28;20173;-53
2020/12/21 05:54:15;;;;;;;11.20;5.03;;;;;;;;;;2075049;28;20216;-53
2020/12/21 05:55:15;;;;;;;11.10;5.63;;;;;;;;;;2078513;28;20202;-57
2020/12/21 05:56:15;;;;;;;9.20;4.53;;;;;;;;;;2082644;28;20298;-52
2020/12/21 05:57:16;;;;;;;7.87;5.23;;;;;;;;;;2079577;28;20172;-53
2020/12/21 05:58:17;;;;;;;11.10;5.23;;;;;;;;;;2083189;28;20172;-56
2020/12/21 05:59:17;;;;;;;11.67;4.83;;;;;;;;;;2082798;28;20218;-58
2020/12/21 06:00:17;;;;;;;11.33;5.40;;;;;;;;;;2081705;28;20167;-60